createdAt,value
2023-02-15T00:00:34.637Z,2.20
2023-02-15T00:01:33.008Z,2.50
2023-02-15T00:02:34.690Z,2.50
2023-02-15T00:03:33.038Z,2.20
2023-02-15T00:04:34.729Z,2.30
2023-02-15T00:05:33.063Z,2.30
2023-02-15T00:06:34.786Z,2.40
2023-02-15T00:07:34.930Z,2.50
2023-02-15T00:08:34.106Z,2.70
2023-02-15T00:09:34.788Z,2.40
2023-02-15T00:10:34.982Z,2.40
2023-02-15T00:11:35.164Z,2.30
2023-02-15T00:12:34.855Z,2.30
2023-02-15T00:13:33.193Z,2.40
2023-02-15T00:14:33.204Z,2.60
2023-02-15T00:15:33.231Z,2.50
2023-02-15T00:16:33.276Z,2.50
2023-02-15T00:17:34.917Z,2.50
2023-02-15T00:18:33.265Z,2.40
2023-02-15T00:19:33.292Z,2.40
2023-02-15T00:20:33.306Z,2.50
2023-02-15T00:21:33.331Z,2.80
2023-02-15T00:22:35.008Z,2.60
2023-02-15T00:23:33.361Z,2.50
2023-02-15T00:24:33.382Z,2.20
2023-02-15T00:25:33.397Z,2.20
2023-02-15T00:26:33.413Z,2.60
2023-02-15T00:27:35.109Z,2.30
2023-02-15T00:28:33.446Z,2.40
2023-02-15T00:29:35.105Z,2.40
2023-02-15T00:30:35.335Z,2.50
2023-02-15T00:31:35.530Z,2.50
2023-02-15T00:32:35.167Z,2.40
2023-02-15T00:33:35.343Z,2.50
2023-02-15T00:34:34.515Z,2.70
2023-02-15T00:35:35.250Z,2.70
2023-02-15T00:36:35.441Z,2.70
2023-02-15T00:37:35.105Z,2.60
2023-02-15T00:38:35.305Z,2.80
2023-02-15T00:39:35.499Z,2.80
2023-02-15T00:40:35.186Z,2.70
2023-02-15T00:41:35.390Z,2.60
2023-02-15T00:42:35.556Z,2.80
2023-02-15T00:43:33.650Z,2.90
2023-02-15T00:44:33.673Z,2.20
2023-02-15T00:45:35.354Z,2.80
2023-02-15T00:46:35.553Z,2.60
2023-02-15T00:47:35.709Z,2.80
2023-02-15T00:48:35.412Z,2.90
2023-02-15T00:49:33.765Z,2.50
2023-02-15T00:50:33.792Z,2.60
2023-02-15T00:51:35.496Z,2.50
2023-02-15T00:52:33.827Z,2.60
2023-02-15T00:53:33.831Z,2.60
2023-02-15T00:54:33.854Z,2.50
2023-02-15T00:55:33.852Z,2.80
2023-02-15T00:56:35.535Z,2.80
2023-02-15T00:57:33.896Z,2.80
2023-02-15T00:58:33.902Z,2.90
2023-02-15T00:59:33.907Z,2.50
2023-02-15T01:00:33.931Z,2.90
2023-02-15T01:01:35.648Z,2.80
2023-02-15T01:02:33.960Z,2.80
2023-02-15T01:03:33.978Z,2.60
2023-02-15T01:04:34.057Z,2.80
2023-02-15T01:05:34.008Z,2.90
2023-02-15T01:06:35.692Z,2.80
2023-02-15T01:07:34.024Z,2.80
2023-02-15T01:08:35.707Z,2.60
2023-02-15T01:09:34.060Z,2.80
2023-02-15T01:10:34.068Z,2.80
2023-02-15T01:11:34.082Z,3.00
2023-02-15T01:12:35.756Z,2.90
2023-02-15T01:13:34.099Z,2.70
2023-02-15T01:14:34.117Z,2.40
2023-02-15T01:15:34.171Z,2.10
2023-02-15T01:16:34.165Z,2.50
2023-02-15T01:17:35.842Z,2.40
2023-02-15T01:18:34.174Z,2.20
2023-02-15T01:19:34.184Z,2.10
2023-02-15T01:20:35.106Z,2.40
2023-02-15T01:21:35.912Z,2.30
2023-02-15T01:22:34.287Z,2.10
2023-02-15T01:23:34.232Z,2.50
2023-02-15T01:24:35.921Z,2.50
2023-02-15T01:25:34.257Z,2.20
2023-02-15T01:26:34.300Z,2.30
2023-02-15T01:27:34.281Z,2.40
2023-02-15T01:28:34.308Z,2.20
2023-02-15T01:29:35.987Z,2.50
2023-02-15T01:30:34.355Z,2.30
2023-02-15T01:31:34.434Z,2.20
2023-02-15T01:32:36.036Z,2.40
2023-02-15T01:33:34.382Z,2.50
2023-02-15T01:34:36.087Z,2.50
2023-02-15T01:35:34.400Z,2.60
2023-02-15T01:36:34.432Z,2.30
2023-02-15T01:37:36.112Z,2.60
2023-02-15T01:38:34.466Z,2.80
2023-02-15T01:39:34.481Z,2.50
2023-02-15T01:40:34.477Z,2.60
2023-02-15T01:41:34.486Z,2.10
2023-02-15T01:42:36.179Z,2.20
2023-02-15T01:43:34.516Z,2.70
2023-02-15T01:44:36.211Z,2.40
2023-02-15T01:45:34.549Z,2.30
2023-02-15T01:46:36.289Z,2.40
2023-02-15T01:47:36.426Z,2.40
2023-02-15T01:48:34.606Z,2.40
2023-02-15T01:49:36.316Z,2.30
2023-02-15T01:50:36.506Z,2.60
2023-02-15T01:51:34.678Z,2.40
2023-02-15T01:52:36.325Z,2.20
2023-02-15T01:53:34.701Z,2.20
2023-02-15T01:54:34.743Z,2.20
2023-02-15T01:55:34.712Z,2.20
2023-02-15T01:56:34.743Z,2.30
2023-02-15T01:57:34.748Z,2.50
2023-02-15T01:58:36.466Z,2.20
2023-02-15T01:59:34.829Z,2.40
2023-02-15T02:00:34.818Z,2.50
2023-02-15T02:01:34.877Z,2.30
2023-02-15T02:02:34.866Z,2.30
2023-02-15T02:03:36.524Z,2.20
2023-02-15T02:04:34.890Z,2.30
2023-02-15T02:05:34.896Z,1.90
2023-02-15T02:06:34.893Z,2.20
2023-02-15T02:07:36.591Z,2.30
2023-02-15T02:08:36.777Z,2.30
2023-02-15T02:09:36.452Z,2.50
2023-02-15T02:10:36.652Z,2.60
2023-02-15T02:11:36.839Z,2.40
2023-02-15T02:12:36.523Z,2.30
2023-02-15T02:13:36.710Z,2.30
2023-02-15T02:14:36.887Z,2.50
2023-02-15T02:15:36.645Z,2.10
2023-02-15T02:16:36.788Z,2.70
2023-02-15T02:17:36.962Z,2.50
2023-02-15T02:18:36.646Z,2.60
2023-02-15T02:19:36.829Z,3.00
2023-02-15T02:20:37.010Z,3.10
2023-02-15T02:21:35.116Z,3.40
2023-02-15T02:22:36.796Z,3.40
2023-02-15T02:23:36.944Z,2.90
2023-02-15T02:24:37.157Z,3.00
2023-02-15T02:25:36.842Z,3.30
2023-02-15T02:26:37.042Z,3.40
2023-02-15T02:27:37.741Z,3.80
2023-02-15T02:28:36.919Z,3.40
2023-02-15T02:29:37.110Z,3.80
2023-02-15T02:30:36.921Z,3.40
2023-02-15T02:31:37.082Z,3.60
2023-02-15T02:32:35.258Z,3.60
2023-02-15T02:33:36.949Z,3.80
2023-02-15T02:34:37.145Z,3.80
2023-02-15T02:35:37.313Z,3.80
2023-02-15T02:36:37.025Z,3.90
2023-02-15T02:37:37.199Z,4.30
2023-02-15T02:38:35.347Z,4.10
2023-02-15T02:39:35.363Z,3.80
2023-02-15T02:40:35.397Z,4.40
2023-02-15T02:41:37.063Z,4.40
2023-02-15T02:42:37.243Z,4.60
2023-02-15T02:43:37.404Z,4.50
2023-02-15T02:44:37.103Z,5.00
2023-02-15T02:45:37.302Z,5.10
2023-02-15T02:46:37.505Z,5.30
2023-02-15T02:47:37.164Z,5.50
2023-02-15T02:48:35.515Z,6.70
2023-02-15T02:49:35.528Z,8.60
2023-02-15T02:50:35.527Z,9.60
2023-02-15T02:51:35.559Z,10.70
2023-02-15T02:52:37.258Z,12.20
2023-02-15T02:53:36.485Z,11.00
2023-02-15T02:54:35.584Z,13.70
2023-02-15T02:55:35.628Z,14.70
2023-02-15T02:56:35.612Z,13.50
2023-02-15T02:57:37.315Z,13.40
2023-02-15T02:58:35.643Z,7.70
2023-02-15T02:59:35.675Z,9.90
2023-02-15T03:00:35.674Z,9.80
2023-02-15T03:01:35.760Z,7.50
2023-02-15T03:02:37.415Z,6.10
2023-02-15T03:03:35.757Z,6.40
2023-02-15T03:04:37.417Z,4.80
2023-02-15T03:05:35.765Z,6.60
2023-02-15T03:06:36.702Z,8.90
2023-02-15T03:07:37.456Z,7.00
2023-02-15T03:08:35.798Z,3.50
2023-02-15T03:09:35.842Z,9.30
2023-02-15T03:10:35.829Z,9.00
2023-02-15T03:11:36.735Z,9.70
2023-02-15T03:12:37.590Z,13.70
2023-02-15T03:13:35.875Z,11.30
2023-02-15T03:14:37.565Z,11.60
2023-02-15T03:15:35.889Z,12.00
2023-02-15T03:16:36.114Z,9.70
2023-02-15T03:17:35.941Z,12.00
2023-02-15T03:18:35.940Z,15.10
2023-02-15T03:19:37.618Z,11.70
2023-02-15T03:20:35.972Z,17.30
2023-02-15T03:21:35.998Z,19.20
2023-02-15T03:22:35.990Z,13.50
2023-02-15T03:23:37.690Z,13.10
2023-02-15T03:24:36.022Z,13.40
2023-02-15T03:25:36.030Z,8.90
2023-02-15T03:26:37.865Z,10.60
2023-02-15T03:27:36.056Z,12.30
2023-02-15T03:28:37.751Z,13.20
2023-02-15T03:29:37.929Z,10.40
2023-02-15T03:30:36.102Z,9.70
2023-02-15T03:31:36.213Z,9.50
2023-02-15T03:32:36.134Z,9.30
2023-02-15T03:33:36.145Z,9.30
2023-02-15T03:34:37.834Z,12.70
2023-02-15T03:35:36.182Z,10.50
2023-02-15T03:36:36.194Z,9.80
2023-02-15T03:37:36.224Z,9.60
2023-02-15T03:38:36.236Z,9.40
2023-02-15T03:39:37.919Z,7.80
2023-02-15T03:40:36.268Z,8.30
2023-02-15T03:41:36.273Z,9.60
2023-02-15T03:42:36.276Z,7.40
2023-02-15T03:43:36.306Z,7.50
2023-02-15T03:44:36.331Z,9.10
2023-02-15T03:45:38.042Z,10.90
2023-02-15T03:46:38.320Z,11.10
2023-02-15T03:47:37.929Z,11.60
2023-02-15T03:48:38.117Z,10.80
2023-02-15T03:49:38.313Z,7.50
2023-02-15T03:50:39.002Z,9.00
2023-02-15T03:51:38.188Z,7.50
2023-02-15T03:52:38.381Z,8.70
2023-02-15T03:53:38.080Z,7.30
2023-02-15T03:54:38.276Z,9.20
2023-02-15T03:55:38.466Z,8.70
2023-02-15T03:56:38.161Z,10.10
2023-02-15T03:57:38.312Z,11.30
2023-02-15T03:58:38.500Z,7.60
2023-02-15T03:59:38.183Z,9.70
2023-02-15T04:00:38.373Z,10.50
2023-02-15T04:01:38.557Z,8.70
2023-02-15T04:02:38.274Z,8.30
2023-02-15T04:03:38.443Z,10.70
2023-02-15T04:04:38.625Z,7.70
2023-02-15T04:05:36.645Z,11.30
2023-02-15T04:06:36.664Z,10.50
2023-02-15T04:07:36.675Z,9.60
2023-02-15T04:08:36.685Z,9.70
2023-02-15T04:09:38.369Z,9.90
2023-02-15T04:10:36.713Z,9.70
2023-02-15T04:11:36.728Z,8.80
2023-02-15T04:12:36.731Z,9.10
2023-02-15T04:13:36.760Z,7.70
2023-02-15T04:14:36.766Z,10.90
2023-02-15T04:15:38.448Z,16.00
2023-02-15T04:16:36.819Z,6.70
2023-02-15T04:17:36.800Z,6.90
2023-02-15T04:18:36.813Z,6.90
2023-02-15T04:19:38.502Z,14.20
2023-02-15T04:20:38.690Z,13.10
2023-02-15T04:21:38.508Z,11.00
2023-02-15T04:22:38.710Z,10.50
2023-02-15T04:23:37.883Z,11.00
2023-02-15T04:24:38.554Z,9.30
2023-02-15T04:25:38.745Z,15.70
2023-02-15T04:26:38.934Z,5.50
2023-02-15T04:27:38.606Z,6.90
2023-02-15T04:28:38.797Z,21.00
2023-02-15T04:29:38.999Z,20.30
2023-02-15T04:30:38.678Z,11.50
2023-02-15T04:31:37.147Z,9.30
2023-02-15T04:32:38.707Z,8.50
2023-02-15T04:33:37.033Z,9.70
2023-02-15T04:34:37.044Z,8.10
2023-02-15T04:35:38.723Z,9.70
2023-02-15T04:36:37.077Z,9.50
2023-02-15T04:37:37.094Z,9.40
2023-02-15T04:38:37.098Z,15.70
2023-02-15T04:39:37.122Z,17.00
2023-02-15T04:40:38.806Z,9.70
2023-02-15T04:41:37.148Z,9.90
2023-02-15T04:42:37.146Z,10.00
2023-02-15T04:43:38.832Z,8.90
2023-02-15T04:44:37.164Z,7.00
2023-02-15T04:45:37.224Z,9.20
2023-02-15T04:46:37.196Z,7.40
2023-02-15T04:47:37.226Z,7.40
2023-02-15T04:48:37.230Z,8.70
2023-02-15T04:49:38.916Z,8.90
2023-02-15T04:50:39.106Z,8.30
2023-02-15T04:51:37.295Z,11.80
2023-02-15T04:52:37.291Z,8.00
2023-02-15T04:53:37.309Z,9.70
2023-02-15T04:54:37.337Z,8.90
2023-02-15T04:55:39.018Z,8.60
2023-02-15T04:56:37.348Z,8.80
2023-02-15T04:57:37.370Z,9.60
2023-02-15T04:58:37.375Z,11.00
2023-02-15T04:59:39.070Z,8.00
2023-02-15T05:00:39.265Z,9.60
2023-02-15T05:01:37.432Z,8.70
2023-02-15T05:02:37.435Z,8.00
2023-02-15T05:03:37.458Z,8.40
2023-02-15T05:04:37.524Z,9.50
2023-02-15T05:05:39.180Z,11.00
2023-02-15T05:06:37.485Z,8.20
2023-02-15T05:07:37.504Z,9.60
2023-02-15T05:08:37.529Z,7.10
2023-02-15T05:09:37.542Z,9.60
2023-02-15T05:10:39.238Z,10.50
2023-02-15T05:11:37.554Z,9.20
2023-02-15T05:12:39.263Z,10.90
2023-02-15T05:13:37.592Z,7.60
2023-02-15T05:14:39.263Z,7.50
2023-02-15T05:15:39.458Z,9.40
2023-02-15T05:16:39.169Z,9.60
2023-02-15T05:17:39.327Z,12.20
2023-02-15T05:18:39.532Z,11.60
2023-02-15T05:19:39.219Z,16.70
2023-02-15T05:20:39.358Z,11.20
2023-02-15T05:21:39.531Z,15.10
2023-02-15T05:22:39.704Z,10.50
2023-02-15T05:23:39.363Z,8.50
2023-02-15T05:24:37.740Z,7.40
2023-02-15T05:25:39.437Z,8.50
2023-02-15T05:26:39.622Z,9.20
2023-02-15T05:27:39.309Z,16.40
2023-02-15T05:28:39.490Z,9.80
2023-02-15T05:29:39.641Z,9.80
2023-02-15T05:30:40.025Z,9.10
2023-02-15T05:31:39.755Z,10.80
2023-02-15T05:32:39.868Z,9.30
2023-02-15T05:33:39.892Z,9.10
2023-02-15T05:34:39.553Z,10.30
2023-02-15T05:35:39.716Z,7.40
2023-02-15T05:36:39.872Z,8.40
2023-02-15T05:37:39.556Z,9.80
2023-02-15T05:38:39.732Z,9.00
2023-02-15T05:39:39.942Z,9.60
2023-02-15T05:40:39.578Z,9.80
2023-02-15T05:41:39.734Z,11.10
2023-02-15T05:42:39.959Z,8.20
2023-02-15T05:43:39.641Z,9.70
2023-02-15T05:44:39.812Z,6.80
2023-02-15T05:45:40.005Z,7.40
2023-02-15T05:46:39.652Z,9.40
2023-02-15T05:47:39.853Z,8.30
2023-02-15T05:48:40.058Z,3.20
2023-02-15T05:49:39.751Z,6.00
2023-02-15T05:50:39.986Z,7.00
2023-02-15T05:51:39.633Z,7.70
2023-02-15T05:52:39.826Z,14.60
2023-02-15T05:53:40.005Z,9.00
2023-02-15T05:54:39.691Z,7.90
2023-02-15T05:55:38.168Z,8.00
2023-02-15T05:56:39.847Z,6.80
2023-02-15T05:57:38.192Z,5.10
2023-02-15T05:58:39.865Z,4.80
2023-02-15T05:59:40.075Z,9.90
2023-02-15T06:00:39.755Z,11.40
2023-02-15T06:01:39.961Z,9.20
2023-02-15T06:02:40.175Z,10.10
2023-02-15T06:03:39.880Z,10.60
2023-02-15T06:04:40.008Z,8.80
2023-02-15T06:05:40.157Z,5.80
2023-02-15T06:06:39.855Z,7.10
2023-02-15T06:07:40.037Z,5.60
2023-02-15T06:08:38.358Z,5.00
2023-02-15T06:09:38.392Z,5.40
2023-02-15T06:10:38.395Z,7.30
2023-02-15T06:11:38.409Z,8.80
2023-02-15T06:12:40.104Z,8.20
2023-02-15T06:13:39.143Z,7.00
2023-02-15T06:14:38.477Z,5.50
2023-02-15T06:15:38.474Z,5.60
2023-02-15T06:16:38.478Z,7.00
2023-02-15T06:17:40.191Z,7.30
2023-02-15T06:18:38.497Z,9.20
2023-02-15T06:19:38.530Z,8.50
2023-02-15T06:20:38.528Z,7.40
2023-02-15T06:21:38.532Z,7.40
2023-02-15T06:22:40.220Z,7.10
2023-02-15T06:23:38.568Z,2.80
2023-02-15T06:24:38.589Z,5.40
2023-02-15T06:25:39.943Z,3.50
2023-02-15T06:26:38.601Z,6.60
2023-02-15T06:27:40.283Z,6.40
2023-02-15T06:28:38.650Z,3.10
2023-02-15T06:29:38.644Z,3.80
2023-02-15T06:30:38.659Z,6.60
2023-02-15T06:31:38.767Z,4.40
2023-02-15T06:32:40.369Z,3.40
2023-02-15T06:33:40.570Z,4.60
2023-02-15T06:34:38.725Z,4.20
2023-02-15T06:35:38.768Z,2.90
2023-02-15T06:36:38.769Z,6.00
2023-02-15T06:37:38.787Z,7.00
2023-02-15T06:38:40.485Z,2.90
2023-02-15T06:39:38.832Z,4.20
2023-02-15T06:40:38.869Z,5.30
2023-02-15T06:41:38.850Z,6.60
2023-02-15T06:42:38.857Z,6.30
2023-02-15T06:43:41.137Z,3.20
2023-02-15T06:44:38.888Z,7.30
2023-02-15T06:45:38.910Z,2.70
2023-02-15T06:46:39.939Z,8.80
2023-02-15T06:47:38.931Z,5.90
2023-02-15T06:48:40.604Z,6.30
2023-02-15T06:49:38.945Z,7.30
2023-02-15T06:50:38.950Z,6.50
2023-02-15T06:51:40.656Z,8.10
2023-02-15T06:52:38.979Z,8.00
2023-02-15T06:53:40.668Z,7.30
2023-02-15T06:54:39.010Z,4.10
2023-02-15T06:55:40.689Z,7.30
2023-02-15T06:56:39.018Z,8.20
2023-02-15T06:57:40.786Z,6.40
2023-02-15T06:58:40.949Z,3.70
2023-02-15T06:59:41.091Z,8.40
2023-02-15T07:00:39.094Z,10.50
2023-02-15T07:01:40.839Z,10.70
2023-02-15T07:02:39.906Z,8.90
2023-02-15T07:03:40.822Z,8.90
2023-02-15T07:04:41.053Z,8.70
2023-02-15T07:05:40.690Z,7.20
2023-02-15T07:06:40.834Z,9.20
2023-02-15T07:07:41.044Z,7.90
2023-02-15T07:08:40.718Z,8.00
2023-02-15T07:09:40.912Z,6.80
2023-02-15T07:10:41.114Z,5.00
2023-02-15T07:11:40.768Z,8.30
2023-02-15T07:12:40.969Z,6.40
2023-02-15T07:13:41.174Z,6.40
2023-02-15T07:14:40.846Z,10.60
2023-02-15T07:15:41.073Z,7.10
2023-02-15T07:16:41.233Z,6.70
2023-02-15T07:17:40.913Z,4.70
2023-02-15T07:18:42.577Z,4.90
2023-02-15T07:19:41.322Z,3.40
2023-02-15T07:20:41.037Z,7.10
2023-02-15T07:21:41.214Z,5.70
2023-02-15T07:22:40.911Z,4.90
2023-02-15T07:23:42.554Z,3.70
2023-02-15T07:24:41.291Z,6.30
2023-02-15T07:25:40.973Z,9.20
2023-02-15T07:26:41.172Z,7.20
2023-02-15T07:27:39.480Z,7.50
2023-02-15T07:28:39.559Z,3.90
2023-02-15T07:29:41.170Z,7.60
2023-02-15T07:30:39.559Z,7.80
2023-02-15T07:31:39.526Z,6.20
2023-02-15T07:32:39.637Z,6.00
2023-02-15T07:33:39.566Z,7.50
2023-02-15T07:34:42.713Z,8.80
2023-02-15T07:35:39.596Z,5.80
2023-02-15T07:36:41.282Z,8.20
2023-02-15T07:37:41.471Z,10.20
2023-02-15T07:38:41.191Z,8.20
2023-02-15T07:39:41.497Z,7.20
2023-02-15T07:40:41.565Z,2.80
2023-02-15T07:41:41.217Z,4.40
2023-02-15T07:42:41.420Z,7.40
2023-02-15T07:43:41.592Z,6.70
2023-02-15T07:44:41.396Z,6.20
2023-02-15T07:45:39.733Z,8.20
2023-02-15T07:46:41.477Z,8.50
2023-02-15T07:47:39.789Z,5.70
2023-02-15T07:48:39.792Z,8.10
2023-02-15T07:49:39.817Z,7.20
2023-02-15T07:50:39.837Z,6.10
2023-02-15T07:51:41.523Z,6.90
2023-02-15T07:52:39.864Z,3.60
2023-02-15T07:53:39.880Z,4.10
2023-02-15T07:54:41.573Z,5.80
2023-02-15T07:55:39.904Z,4.50
2023-02-15T07:56:39.933Z,3.90
2023-02-15T07:57:39.930Z,4.50
2023-02-15T07:58:39.944Z,4.20
2023-02-15T07:59:39.957Z,4.30
2023-02-15T08:00:41.699Z,8.10
2023-02-15T08:01:39.977Z,4.50
2023-02-15T08:02:41.707Z,3.80
2023-02-15T08:03:40.081Z,7.70
2023-02-15T08:04:40.017Z,9.20
2023-02-15T08:05:40.030Z,7.00
2023-02-15T08:06:40.061Z,6.60
2023-02-15T08:07:41.734Z,5.90
2023-02-15T08:08:40.112Z,8.50
2023-02-15T08:09:40.106Z,7.80
2023-02-15T08:10:40.117Z,8.60
2023-02-15T08:11:41.896Z,9.10
2023-02-15T08:12:40.186Z,11.10
2023-02-15T08:13:40.165Z,9.60
2023-02-15T08:14:40.217Z,8.40
2023-02-15T08:15:40.193Z,8.60
2023-02-15T08:16:41.924Z,6.90
2023-02-15T08:17:40.224Z,10.40
2023-02-15T08:18:40.237Z,8.80
2023-02-15T08:19:40.232Z,8.50
2023-02-15T08:20:40.275Z,5.30
2023-02-15T08:21:43.409Z,3.80
2023-02-15T08:22:40.291Z,3.40
2023-02-15T08:23:40.297Z,6.00
2023-02-15T08:24:41.246Z,6.80
2023-02-15T08:25:41.149Z,9.90
2023-02-15T08:26:42.169Z,11.30
2023-02-15T08:27:42.062Z,8.80
2023-02-15T08:28:40.368Z,9.30
2023-02-15T08:29:40.593Z,8.40
2023-02-15T08:30:40.406Z,6.30
2023-02-15T08:31:40.490Z,9.10
2023-02-15T08:32:43.082Z,9.70
2023-02-15T08:33:40.453Z,9.40
2023-02-15T08:34:40.489Z,9.50
2023-02-15T08:35:40.483Z,6.90
2023-02-15T08:36:40.514Z,7.30
2023-02-15T08:37:42.197Z,5.00
2023-02-15T08:38:40.556Z,7.20
2023-02-15T08:39:40.575Z,3.20
2023-02-15T08:40:40.624Z,7.60
2023-02-15T08:41:42.241Z,2.00
2023-02-15T08:42:43.469Z,4.00
2023-02-15T08:43:42.163Z,4.30
2023-02-15T08:44:42.368Z,1.70
2023-02-15T08:45:42.579Z,4.70
2023-02-15T08:46:42.218Z,4.40
2023-02-15T08:47:42.425Z,3.70
2023-02-15T08:48:42.597Z,3.30
2023-02-15T08:49:42.273Z,2.90
2023-02-15T08:50:42.468Z,4.30
2023-02-15T08:51:42.653Z,5.70
2023-02-15T08:52:42.311Z,4.20
2023-02-15T08:53:42.605Z,3.10
2023-02-15T08:54:40.783Z,5.80
2023-02-15T08:55:40.794Z,4.40
2023-02-15T08:56:42.481Z,4.60
2023-02-15T08:57:40.830Z,4.90
2023-02-15T08:58:40.855Z,2.20
2023-02-15T08:59:42.543Z,3.80
2023-02-15T09:00:40.896Z,3.80
2023-02-15T09:01:40.923Z,3.40
2023-02-15T09:02:40.994Z,4.80
2023-02-15T09:03:40.911Z,1.30
2023-02-15T09:04:42.618Z,5.50
2023-02-15T09:05:40.941Z,2.60
2023-02-15T09:06:40.966Z,4.30
2023-02-15T09:07:40.973Z,3.70
2023-02-15T09:08:40.986Z,5.30
2023-02-15T09:09:44.136Z,3.80
2023-02-15T09:10:41.026Z,4.50
2023-02-15T09:11:41.035Z,2.80
2023-02-15T09:12:41.037Z,3.40
2023-02-15T09:13:42.740Z,4.50
2023-02-15T09:14:44.383Z,4.10
2023-02-15T09:15:42.585Z,3.40
2023-02-15T09:16:42.811Z,2.60
2023-02-15T09:17:42.952Z,3.70
2023-02-15T09:18:43.136Z,6.40
2023-02-15T09:19:42.850Z,3.00
2023-02-15T09:20:42.984Z,4.20
2023-02-15T09:21:42.700Z,5.40
2023-02-15T09:22:42.815Z,6.70
2023-02-15T09:23:42.971Z,4.80
2023-02-15T09:24:43.145Z,2.70
2023-02-15T09:25:42.828Z,4.00
2023-02-15T09:26:43.008Z,4.60
2023-02-15T09:27:43.164Z,2.50
2023-02-15T09:28:42.860Z,2.00
2023-02-15T09:29:43.038Z,3.90
2023-02-15T09:30:43.313Z,5.70
2023-02-15T09:31:42.929Z,5.70
2023-02-15T09:32:43.081Z,2.30
2023-02-15T09:33:43.293Z,3.70
2023-02-15T09:34:43.014Z,3.90
2023-02-15T09:35:44.110Z,3.80
2023-02-15T09:36:43.356Z,2.50
2023-02-15T09:37:41.380Z,4.80
2023-02-15T09:38:41.390Z,9.70
2023-02-15T09:39:41.407Z,5.40
2023-02-15T09:40:41.542Z,4.60
2023-02-15T09:41:43.100Z,5.90
2023-02-15T09:42:41.452Z,3.40
2023-02-15T09:43:41.470Z,4.00
2023-02-15T09:44:41.486Z,4.00
2023-02-15T09:45:43.226Z,5.00
2023-02-15T09:46:41.512Z,2.50
2023-02-15T09:47:41.522Z,4.00
2023-02-15T09:48:41.541Z,2.80
2023-02-15T09:49:41.545Z,7.10
2023-02-15T09:50:41.567Z,4.20
2023-02-15T09:51:44.701Z,4.10
2023-02-15T09:52:41.615Z,1.90
2023-02-15T09:53:41.614Z,3.50
2023-02-15T09:54:41.642Z,2.70
2023-02-15T09:55:41.644Z,3.20
2023-02-15T09:56:43.687Z,4.30
2023-02-15T09:57:41.665Z,6.80
2023-02-15T09:58:42.642Z,3.90
2023-02-15T09:59:41.705Z,3.00
2023-02-15T10:00:41.735Z,1.10
2023-02-15T10:01:43.587Z,3.40
2023-02-15T10:02:41.759Z,2.20
2023-02-15T10:03:41.782Z,1.40
2023-02-15T10:04:41.834Z,2.10
2023-02-15T10:05:41.821Z,3.90
2023-02-15T10:06:43.499Z,3.00
2023-02-15T10:07:42.000Z,4.20
2023-02-15T10:08:41.871Z,3.00
2023-02-15T10:09:41.866Z,2.40
2023-02-15T10:10:41.956Z,4.10
2023-02-15T10:11:43.578Z,3.80
2023-02-15T10:12:42.919Z,5.30
2023-02-15T10:13:41.932Z,3.20
2023-02-15T10:14:41.950Z,3.60
2023-02-15T10:15:41.958Z,4.10
2023-02-15T10:16:43.689Z,2.60
2023-02-15T10:17:41.985Z,3.40
2023-02-15T10:18:45.140Z,5.50
2023-02-15T10:19:42.003Z,2.30
2023-02-15T10:20:43.713Z,1.80
2023-02-15T10:21:43.888Z,2.80
2023-02-15T10:22:42.061Z,4.30
2023-02-15T10:23:43.874Z,1.90
2023-02-15T10:24:45.508Z,2.00
2023-02-15T10:25:43.128Z,5.50
2023-02-15T10:26:43.793Z,3.50
2023-02-15T10:27:43.965Z,3.80
2023-02-15T10:28:43.662Z,3.10
2023-02-15T10:29:43.872Z,4.00
2023-02-15T10:30:44.190Z,7.10
2023-02-15T10:31:43.853Z,8.30
2023-02-15T10:32:43.937Z,3.00
2023-02-15T10:33:44.310Z,2.90
2023-02-15T10:34:43.828Z,3.00
2023-02-15T10:35:44.016Z,2.00
2023-02-15T10:36:44.197Z,3.50
2023-02-15T10:37:43.898Z,3.80
2023-02-15T10:38:44.079Z,6.50
2023-02-15T10:39:45.729Z,4.60
2023-02-15T10:40:43.967Z,5.80
2023-02-15T10:41:42.341Z,5.30
2023-02-15T10:42:42.368Z,5.70
2023-02-15T10:43:42.561Z,5.90
2023-02-15T10:44:44.061Z,5.60
2023-02-15T10:45:42.421Z,3.10
2023-02-15T10:46:42.454Z,4.10
2023-02-15T10:47:42.481Z,3.70
2023-02-15T10:48:44.136Z,6.30
2023-02-15T10:49:45.777Z,2.30
2023-02-15T10:50:44.016Z,3.50
2023-02-15T10:51:44.195Z,1.10
2023-02-15T10:52:44.395Z,2.30
2023-02-15T10:53:44.091Z,5.40
2023-02-15T10:54:44.256Z,3.40
2023-02-15T10:55:44.454Z,4.90
2023-02-15T10:56:44.146Z,3.90
2023-02-15T10:57:44.321Z,6.30
2023-02-15T10:58:44.528Z,6.50
2023-02-15T10:59:44.209Z,4.50
2023-02-15T11:00:45.886Z,2.60
2023-02-15T11:01:44.636Z,5.50
2023-02-15T11:02:44.308Z,3.70
2023-02-15T11:03:44.454Z,2.20
2023-02-15T11:04:44.658Z,3.30
2023-02-15T11:05:44.323Z,3.40
2023-02-15T11:06:44.477Z,2.10
2023-02-15T11:07:44.646Z,6.70
2023-02-15T11:08:42.730Z,3.00
2023-02-15T11:09:42.740Z,2.40
2023-02-15T11:10:42.753Z,4.00
2023-02-15T11:11:42.760Z,2.10
2023-02-15T11:12:44.452Z,2.00
2023-02-15T11:13:42.915Z,5.30
2023-02-15T11:14:42.816Z,3.30
2023-02-15T11:15:44.596Z,2.90
2023-02-15T11:16:42.860Z,5.10
2023-02-15T11:17:42.861Z,4.90
2023-02-15T11:18:42.901Z,2.40
2023-02-15T11:19:42.892Z,2.10
2023-02-15T11:20:44.589Z,1.50
2023-02-15T11:21:42.915Z,2.00
2023-02-15T11:22:42.931Z,3.40
2023-02-15T11:23:42.937Z,3.00
2023-02-15T11:24:43.063Z,4.00
2023-02-15T11:25:44.649Z,2.80
2023-02-15T11:26:43.080Z,3.30
2023-02-15T11:27:43.068Z,3.40
2023-02-15T11:28:43.023Z,5.70
2023-02-15T11:29:43.033Z,4.20
2023-02-15T11:30:43.048Z,3.30
2023-02-15T11:31:44.826Z,4.50
2023-02-15T11:32:43.053Z,2.80
2023-02-15T11:33:43.077Z,3.40
2023-02-15T11:34:43.082Z,4.80
2023-02-15T11:35:43.093Z,5.90
2023-02-15T11:36:44.780Z,6.70
2023-02-15T11:37:43.150Z,4.70
2023-02-15T11:38:43.151Z,3.40
2023-02-15T11:39:43.157Z,4.00
2023-02-15T11:40:43.169Z,5.10
2023-02-15T11:41:44.860Z,4.90
2023-02-15T11:42:43.201Z,6.60
2023-02-15T11:43:44.896Z,4.70
2023-02-15T11:44:43.233Z,3.60
2023-02-15T11:45:43.269Z,4.60
2023-02-15T11:46:43.366Z,3.80
2023-02-15T11:47:44.287Z,3.00
2023-02-15T11:48:45.931Z,1.30
2023-02-15T11:49:43.301Z,1.20
2023-02-15T11:50:43.312Z,3.10
2023-02-15T11:51:43.338Z,2.00
2023-02-15T11:52:43.634Z,1.80
2023-02-15T11:53:45.065Z,2.30
2023-02-15T11:54:43.528Z,2.00
2023-02-15T11:55:43.409Z,0.90
2023-02-15T11:56:43.434Z,1.40
2023-02-15T11:57:45.119Z,1.70
2023-02-15T11:58:43.448Z,1.90
2023-02-15T11:59:43.508Z,3.10
2023-02-15T12:00:43.485Z,2.30
2023-02-15T12:01:45.183Z,3.80
2023-02-15T12:02:45.404Z,2.60
2023-02-15T12:03:45.091Z,1.50
2023-02-15T12:04:43.534Z,4.90
2023-02-15T12:05:45.219Z,2.10
2023-02-15T12:06:43.570Z,5.20
2023-02-15T12:07:45.251Z,3.60
2023-02-15T12:08:46.413Z,3.50
2023-02-15T12:09:43.620Z,5.20
2023-02-15T12:10:45.311Z,3.30
2023-02-15T12:11:45.511Z,3.30
2023-02-15T12:12:45.191Z,3.60
2023-02-15T12:13:45.382Z,7.30
2023-02-15T12:14:45.575Z,6.00
2023-02-15T12:15:45.322Z,7.40
2023-02-15T12:16:45.490Z,6.40
2023-02-15T12:17:43.738Z,4.80
2023-02-15T12:18:45.521Z,3.50
2023-02-15T12:19:43.759Z,3.00
2023-02-15T12:20:43.779Z,2.40
2023-02-15T12:21:43.789Z,2.10
2023-02-15T12:22:45.472Z,5.30
2023-02-15T12:23:45.679Z,2.30
2023-02-15T12:24:46.320Z,1.80
2023-02-15T12:25:45.547Z,5.30
2023-02-15T12:26:45.732Z,4.60
2023-02-15T12:27:45.441Z,2.30
2023-02-15T12:28:45.644Z,3.50
2023-02-15T12:29:45.918Z,1.90
2023-02-15T12:30:45.516Z,4.00
2023-02-15T12:31:45.835Z,3.50
2023-02-15T12:32:45.862Z,4.00
2023-02-15T12:33:45.546Z,4.00
2023-02-15T12:34:45.742Z,1.60
2023-02-15T12:35:45.937Z,3.40
2023-02-15T12:36:45.604Z,3.40
2023-02-15T12:37:45.774Z,2.50
2023-02-15T12:38:45.954Z,1.20
2023-02-15T12:39:45.649Z,3.20
2023-02-15T12:40:46.792Z,3.30
2023-02-15T12:41:46.054Z,4.40
2023-02-15T12:42:45.088Z,4.30
2023-02-15T12:43:45.805Z,3.30
2023-02-15T12:44:45.977Z,3.30
2023-02-15T12:45:44.172Z,3.50
2023-02-15T12:46:45.860Z,2.80
2023-02-15T12:47:44.158Z,2.30
2023-02-15T12:48:44.173Z,2.20
2023-02-15T12:49:48.689Z,1.70
2023-02-15T12:50:46.055Z,2.40
2023-02-15T12:51:44.216Z,2.10
2023-02-15T12:52:44.223Z,3.50
2023-02-15T12:53:45.921Z,2.10
2023-02-15T12:54:46.090Z,4.80
2023-02-15T12:55:46.285Z,5.00
2023-02-15T12:56:46.939Z,2.40
2023-02-15T12:57:46.191Z,5.60
2023-02-15T12:58:45.883Z,7.00
2023-02-15T12:59:44.766Z,6.30
2023-02-15T13:00:46.075Z,3.20
2023-02-15T13:01:46.439Z,4.70
2023-02-15T13:02:45.928Z,3.50
2023-02-15T13:03:46.126Z,3.00
2023-02-15T13:04:46.303Z,2.60
2023-02-15T13:05:45.993Z,3.80
2023-02-15T13:06:46.317Z,3.80
2023-02-15T13:07:44.455Z,3.10
2023-02-15T13:08:44.472Z,2.90
2023-02-15T13:09:44.478Z,2.20
2023-02-15T13:10:46.160Z,3.90
2023-02-15T13:11:44.505Z,2.50
2023-02-15T13:12:45.348Z,2.30
2023-02-15T13:13:44.540Z,2.50
2023-02-15T13:14:44.534Z,4.60
2023-02-15T13:15:44.559Z,4.10